createdAt,value
2019-05-10T00:01:38.637Z,11.00
2019-05-10T00:04:42.301Z,10.90
2019-05-10T00:07:45.992Z,11.00
2019-05-10T00:10:51.088Z,10.90
2019-05-10T00:13:38.877Z,10.90
2019-05-10T00:16:46.256Z,10.80
2019-05-10T00:19:31.151Z,10.70
2019-05-10T00:22:26.167Z,10.60
2019-05-10T00:25:19.915Z,10.50
2019-05-10T00:28:04.540Z,10.50
2019-05-10T00:30:49.083Z,10.50
2019-05-10T00:33:34.041Z,10.60
2019-05-10T00:36:18.954Z,10.50
2019-05-10T00:39:04.076Z,10.40
2019-05-10T00:41:48.356Z,10.40
2019-05-10T00:44:33.071Z,10.40
2019-05-10T00:47:17.516Z,10.40
2019-05-10T00:50:10.876Z,10.50
2019-05-10T00:52:55.765Z,10.60
2019-05-10T00:55:40.588Z,10.60
2019-05-10T00:58:24.999Z,10.60
2019-05-10T01:00:58.001Z,10.50
2019-05-10T01:03:50.238Z,10.40
2019-05-10T01:06:35.044Z,10.30
2019-05-10T01:09:19.167Z,10.20
2019-05-10T01:12:03.584Z,10.20
2019-05-10T01:14:56.979Z,10.10
2019-05-10T01:17:41.647Z,10.10
2019-05-10T01:20:26.133Z,10.10
2019-05-10T01:23:10.869Z,10.10
2019-05-10T01:25:55.476Z,10.10
2019-05-10T01:28:40.274Z,10.10
2019-05-10T01:31:25.283Z,10.10
2019-05-10T01:34:09.771Z,10.10
2019-05-10T01:36:54.302Z,10.10
2019-05-10T01:39:47.795Z,10.10
2019-05-10T01:42:32.298Z,10.10
2019-05-10T01:45:17.001Z,10.20
2019-05-10T01:48:01.892Z,10.10
2019-05-10T01:50:46.499Z,10.20
2019-05-10T01:53:31.431Z,10.20
2019-05-10T01:56:26.271Z,10.20
2019-05-10T01:59:20.027Z,10.40
2019-05-10T02:02:04.440Z,10.60
2019-05-10T02:04:48.943Z,10.70
2019-05-10T02:07:33.624Z,10.60
2019-05-10T02:10:26.639Z,10.50
2019-05-10T02:13:11.475Z,10.40
2019-05-10T02:15:56.055Z,10.30
2019-05-10T02:18:40.743Z,10.10
2019-05-10T02:21:25.688Z,10.00
2019-05-10T02:24:09.964Z,10.00
2019-05-10T02:27:03.428Z,9.90
2019-05-10T02:29:47.951Z,10.00
2019-05-10T02:32:32.456Z,10.20
2019-05-10T02:35:17.204Z,10.40
2019-05-10T02:38:01.783Z,10.30
2019-05-10T02:40:55.088Z,10.40
2019-05-10T02:43:39.960Z,10.20
2019-05-10T02:46:25.021Z,10.10
2019-05-10T02:49:10.003Z,10.00
2019-05-10T02:52:03.712Z,9.90
2019-05-10T02:54:48.443Z,9.80
2019-05-10T02:57:32.825Z,9.80
2019-05-10T03:00:16.936Z,9.80
2019-05-10T03:03:10.932Z,9.80
2019-05-10T03:06:04.940Z,9.80
2019-05-10T03:08:50.078Z,9.70
2019-05-10T03:11:45.585Z,9.50
2019-05-10T03:14:30.436Z,9.50
2019-05-10T03:17:15.337Z,9.40
2019-05-10T03:20:00.010Z,9.30
2019-05-10T03:22:44.793Z,9.30
2019-05-10T03:25:29.765Z,9.30
2019-05-10T03:28:14.620Z,9.30
2019-05-10T03:30:59.075Z,9.40
2019-05-10T03:33:44.037Z,9.40
2019-05-10T03:36:28.988Z,9.30
2019-05-10T03:39:13.590Z,9.30
2019-05-10T03:41:58.148Z,9.40
2019-05-10T03:44:43.172Z,9.50
2019-05-10T03:47:28.022Z,9.50
2019-05-10T03:50:13.058Z,9.50
2019-05-10T03:52:57.995Z,9.40
2019-05-10T03:55:43.112Z,9.40
2019-05-10T03:58:36.463Z,9.40
2019-05-10T04:01:21.370Z,9.40
2019-05-10T04:04:09.453Z,9.40
2019-05-10T04:06:51.934Z,9.40
2019-05-10T04:09:45.443Z,9.40
2019-05-10T04:12:29.936Z,9.40
2019-05-10T04:15:14.672Z,9.40
2019-05-10T04:17:59.328Z,9.40
2019-05-10T04:20:43.954Z,9.40
2019-05-10T04:23:28.962Z,9.40
2019-05-10T04:26:13.725Z,9.40
2019-05-10T04:29:08.648Z,9.50
2019-05-10T04:32:02.255Z,9.50
2019-05-10T04:34:47.482Z,9.50
2019-05-10T04:37:41.295Z,9.60
2019-05-10T04:40:25.878Z,9.60
2019-05-10T04:43:10.307Z,9.60
2019-05-10T04:45:54.835Z,9.80
2019-05-10T04:48:39.592Z,10.10
2019-05-10T04:51:23.997Z,10.10
2019-05-10T04:54:17.632Z,10.00
2019-05-10T04:57:02.535Z,10.00
2019-05-10T04:59:47.523Z,10.00
2019-05-10T05:02:32.136Z,10.00
2019-05-10T05:05:17.041Z,10.00
2019-05-10T05:08:01.155Z,10.10
2019-05-10T05:10:45.795Z,10.10
2019-05-10T05:13:30.573Z,10.20
2019-05-10T05:16:15.151Z,10.20
2019-05-10T05:19:08.298Z,10.30
2019-05-10T05:21:53.494Z,10.30
2019-05-10T05:24:37.951Z,10.40
2019-05-10T05:27:22.804Z,10.40
2019-05-10T05:30:08.076Z,10.50
2019-05-10T05:32:52.866Z,10.50
2019-05-10T05:35:37.605Z,10.60
2019-05-10T05:38:22.360Z,10.70
2019-05-10T05:41:07.279Z,10.80
2019-05-10T05:43:53.384Z,11.00
2019-05-10T05:46:38.170Z,11.20
2019-05-10T05:49:22.987Z,11.30
2019-05-10T05:52:07.129Z,11.50
2019-05-10T05:54:52.888Z,11.70
2019-05-10T05:57:38.571Z,11.80
2019-05-10T06:00:23.394Z,12.00
2019-05-10T06:03:08.035Z,12.10
2019-05-10T06:05:52.127Z,12.10
2019-05-10T06:08:45.628Z,12.20
2019-05-10T06:11:35.959Z,12.20
2019-05-10T06:14:16.911Z,12.40
2019-05-10T06:17:01.782Z,12.50
2019-05-10T06:19:46.960Z,12.70
2019-05-10T06:22:32.265Z,12.80
2019-05-10T06:25:38.908Z,12.90
2019-05-10T06:28:25.666Z,13.10
2019-05-10T06:30:57.683Z,13.20
2019-05-10T06:33:50.811Z,13.30
2019-05-10T06:36:35.729Z,13.30
2019-05-10T06:39:20.107Z,13.50
2019-05-10T06:42:05.087Z,13.60
2019-05-10T06:44:49.702Z,13.70
2019-05-10T06:47:34.234Z,13.80
2019-05-10T06:50:28.850Z,13.70
2019-05-10T06:53:11.003Z,13.90
2019-05-10T06:56:00.540Z,14.00
2019-05-10T06:58:45.466Z,14.20
2019-05-10T07:01:45.813Z,14.00
2019-05-10T07:04:25.401Z,13.90
2019-05-10T07:07:22.076Z,13.70
2019-05-10T07:10:12.240Z,13.80
2019-05-10T07:12:42.636Z,13.80
2019-05-10T07:15:41.991Z,13.80
2019-05-10T07:18:24.286Z,13.70
2019-05-10T07:21:17.819Z,13.80
2019-05-10T07:24:02.339Z,13.80
2019-05-10T07:26:47.131Z,13.90
2019-05-10T07:29:41.987Z,14.00
2019-05-10T07:32:22.092Z,13.80
2019-05-10T07:35:04.972Z,13.80
2019-05-10T07:37:51.858Z,13.70
2019-05-10T07:40:37.094Z,13.70
2019-05-10T07:43:26.517Z,13.70
2019-05-10T07:46:15.884Z,13.70
2019-05-10T07:49:09.511Z,13.80
2019-05-10T07:51:54.458Z,14.00
2019-05-10T07:54:45.066Z,14.20
2019-05-10T07:57:27.065Z,14.20
2019-05-10T08:00:11.752Z,14.30
2019-05-10T08:03:07.624Z,14.20
2019-05-10T08:05:46.325Z,14.50
2019-05-10T08:08:39.119Z,14.50
2019-05-10T08:11:23.596Z,14.50
2019-05-10T08:14:11.092Z,14.70
2019-05-10T08:16:58.307Z,14.90
2019-05-10T08:19:41.436Z,15.10
2019-05-10T08:22:26.841Z,15.20
2019-05-10T08:25:15.215Z,15.20
2019-05-10T08:27:58.532Z,15.40
2019-05-10T08:30:52.378Z,15.60
2019-05-10T08:33:29.614Z,15.70
2019-05-10T08:36:14.287Z,15.80
2019-05-10T08:39:09.377Z,15.90
2019-05-10T08:41:46.032Z,15.70
2019-05-10T08:44:32.697Z,15.60
2019-05-10T08:47:27.884Z,15.60
2019-05-10T08:50:28.793Z,15.60
2019-05-10T08:53:04.388Z,15.80
2019-05-10T08:55:45.078Z,16.10
2019-05-10T08:58:35.443Z,16.20
2019-05-10T09:01:26.515Z,16.30
2019-05-10T09:04:06.834Z,16.40
2019-05-10T09:06:55.425Z,16.40
2019-05-10T09:09:45.815Z,16.50
2019-05-10T09:12:23.061Z,16.30
2019-05-10T09:15:16.434Z,16.30
2019-05-10T09:18:04.131Z,16.40
2019-05-10T09:20:46.944Z,16.40
2019-05-10T09:23:42.600Z,16.40
2019-05-10T09:26:26.615Z,16.30
2019-05-10T09:29:12.142Z,16.30
2019-05-10T09:32:06.635Z,16.60
2019-05-10T09:34:54.015Z,16.80
2019-05-10T09:37:38.580Z,17.10
2019-05-10T09:40:23.302Z,17.30
2019-05-10T09:43:09.849Z,17.60
2019-05-10T09:46:03.829Z,17.70
2019-05-10T09:48:54.548Z,17.70
2019-05-10T09:51:36.287Z,17.70
2019-05-10T09:54:23.314Z,17.70
2019-05-10T09:57:08.262Z,17.70
2019-05-10T10:00:02.900Z,17.80
2019-05-10T10:02:56.407Z,18.00
2019-05-10T10:05:34.564Z,18.10
2019-05-10T10:08:19.175Z,18.20
2019-05-10T10:11:19.681Z,18.40
2019-05-10T10:14:04.052Z,18.70
2019-05-10T10:16:57.985Z,18.60
2019-05-10T10:19:34.739Z,18.80
2019-05-10T10:22:19.967Z,18.90
2019-05-10T10:25:04.304Z,18.70
2019-05-10T10:27:58.063Z,18.40
2019-05-10T10:30:58.976Z,18.50
2019-05-10T10:33:38.086Z,18.40
2019-05-10T10:36:22.950Z,18.40
2019-05-10T10:39:07.616Z,18.40
2019-05-10T10:41:53.016Z,18.40
2019-05-10T10:44:48.338Z,18.30
2019-05-10T10:47:32.372Z,18.10
2019-05-10T10:50:17.464Z,18.00
2019-05-10T10:53:02.117Z,18.00
2019-05-10T10:55:54.073Z,18.00
2019-05-10T10:58:33.000Z,17.80
2019-05-10T11:01:33.117Z,17.80
2019-05-10T11:04:16.145Z,17.80
2019-05-10T11:07:09.824Z,17.80
2019-05-10T11:09:45.284Z,17.60
2019-05-10T11:12:30.776Z,17.50
2019-05-10T11:15:22.078Z,17.30
2019-05-10T11:18:02.735Z,17.20
2019-05-10T11:20:49.348Z,17.10
2019-05-10T11:23:38.694Z,17.00
2019-05-10T11:26:21.755Z,17.30
2019-05-10T11:29:05.945Z,17.70
2019-05-10T11:32:15.286Z,18.10
2019-05-10T11:34:58.422Z,18.60
2019-05-10T11:37:45.499Z,19.10
2019-05-10T11:40:34.493Z,19.60
2019-05-10T11:43:22.355Z,19.90
2019-05-10T11:46:03.740Z,20.00
2019-05-10T11:48:57.936Z,19.80
2019-05-10T11:51:47.912Z,19.40
2019-05-10T11:54:31.688Z,19.30
2019-05-10T11:57:15.795Z,19.30
2019-05-10T12:00:00.891Z,19.10
2019-05-10T12:03:06.942Z,19.00
2019-05-10T12:05:42.490Z,18.70
2019-05-10T12:08:37.099Z,18.60
2019-05-10T12:11:40.086Z,18.50
2019-05-10T12:14:29.352Z,18.50
2019-05-10T12:17:14.449Z,18.40
2019-05-10T12:20:46.387Z,18.30
2019-05-10T12:23:22.901Z,18.10
2019-05-10T12:27:12.906Z,18.10
2019-05-10T12:28:47.538Z,18.10
2019-05-10T12:31:32.182Z,17.90
2019-05-10T12:34:17.371Z,17.90
2019-05-10T12:37:06.554Z,18.20
2019-05-10T12:40:06.188Z,18.80
2019-05-10T12:42:46.943Z,19.50
2019-05-10T12:45:31.415Z,20.10
2019-05-10T12:48:16.156Z,20.30
2019-05-10T12:51:16.002Z,20.40
2019-05-10T12:54:11.303Z,20.60
2019-05-10T12:56:55.632Z,20.50
2019-05-10T12:59:49.541Z,20.50
2019-05-10T13:02:44.809Z,20.30
2019-05-10T13:05:32.115Z,20.20
2019-05-10T13:08:15.832Z,19.90
2019-05-10T13:11:00.779Z,19.50
2019-05-10T13:13:45.984Z,19.60
2019-05-10T13:16:30.600Z,19.70
2019-05-10T13:19:20.193Z,19.50
2019-05-10T13:22:10.104Z,19.00
2019-05-10T13:24:55.971Z,18.70
2019-05-10T13:27:40.643Z,18.50
2019-05-10T13:30:28.112Z,18.00
2019-05-10T13:33:28.908Z,17.60
2019-05-10T13:36:08.111Z,17.50
2019-05-10T13:38:52.971Z,17.60
2019-05-10T13:41:37.586Z,17.40
2019-05-10T13:44:21.933Z,16.60
2019-05-10T13:47:06.740Z,16.00
2019-05-10T13:49:51.084Z,15.50
2019-05-10T13:52:45.149Z,15.10
2019-05-10T13:55:38.799Z,15.00
2019-05-10T13:58:23.660Z,14.60
2019-05-10T14:00:57.712Z,14.40
2019-05-10T14:03:54.335Z,14.20
2019-05-10T14:07:11.213Z,14.30
2019-05-10T14:09:55.731Z,14.50
2019-05-10T14:12:39.863Z,14.90
2019-05-10T14:15:33.331Z,15.20
2019-05-10T14:18:18.143Z,15.90
2019-05-10T14:21:02.608Z,16.40
2019-05-10T14:23:57.156Z,16.80
2019-05-10T14:26:41.639Z,17.00
2019-05-10T14:29:33.993Z,16.90
2019-05-10T14:32:12.898Z,16.80
2019-05-10T14:34:57.608Z,16.80
2019-05-10T14:37:42.227Z,17.30
2019-05-10T14:40:28.220Z,17.80
2019-05-10T14:43:21.467Z,18.20
2019-05-10T14:46:18.143Z,18.40
2019-05-10T14:49:11.929Z,18.40
2019-05-10T14:51:59.358Z,18.70
2019-05-10T14:54:44.459Z,19.20
2019-05-10T14:57:29.318Z,19.80
2019-05-10T15:00:13.858Z,20.50
2019-05-10T15:03:02.244Z,21.00
2019-05-10T15:05:49.039Z,21.50
2019-05-10T15:08:31.265Z,21.60
2019-05-10T15:11:15.584Z,21.40
2019-05-10T15:14:09.198Z,21.60
2019-05-10T15:16:55.488Z,21.70
2019-05-10T15:19:40.265Z,21.90
2019-05-10T15:22:24.946Z,22.40
2019-05-10T15:25:09.376Z,22.90
2019-05-10T15:27:54.742Z,23.10
2019-05-10T15:30:52.361Z,23.30
2019-05-10T15:33:34.983Z,23.40
2019-05-10T15:36:23.672Z,23.50
2019-05-10T15:39:05.961Z,23.50
2019-05-10T15:41:53.729Z,23.60
2019-05-10T15:44:45.695Z,23.70
2019-05-10T15:47:30.387Z,23.80
2019-05-10T15:50:14.949Z,23.90
2019-05-10T15:52:59.286Z,23.80
2019-05-10T15:55:44.084Z,23.20
2019-05-10T15:58:42.463Z,22.80
2019-05-10T16:01:26.926Z,22.50
2019-05-10T16:04:11.771Z,22.10
2019-05-10T16:06:56.730Z,21.80
2019-05-10T16:09:54.807Z,21.00
2019-05-10T16:12:37.768Z,20.40
2019-05-10T16:15:23.227Z,20.20
2019-05-10T16:18:08.022Z,19.90
2019-05-10T16:20:52.637Z,19.90
2019-05-10T16:23:41.290Z,20.10
2019-05-10T16:26:24.613Z,19.80
2019-05-10T16:29:17.833Z,19.90
2019-05-10T16:32:02.362Z,19.50
2019-05-10T16:34:46.832Z,19.20
2019-05-10T16:37:39.840Z,19.20
2019-05-10T16:40:25.059Z,18.90
2019-05-10T16:43:13.415Z,19.10
2019-05-10T16:45:56.236Z,19.20
2019-05-10T16:48:41.196Z,19.20
2019-05-10T16:51:26.100Z,19.20
2019-05-10T16:54:25.224Z,19.20
2019-05-10T16:57:15.143Z,19.10
2019-05-10T17:00:01.895Z,18.90
2019-05-10T17:02:46.407Z,18.80
2019-05-10T17:05:30.996Z,18.50
2019-05-10T17:08:16.084Z,18.50
2019-05-10T17:11:09.474Z,18.70
2019-05-10T17:13:47.123Z,18.40
2019-05-10T17:16:31.868Z,18.20
2019-05-10T17:19:16.255Z,18.00
2019-05-10T17:22:09.920Z,17.90
2019-05-10T17:24:56.904Z,17.80
2019-05-10T17:27:40.900Z,17.70
2019-05-10T17:30:27.743Z,17.50
2019-05-10T17:33:11.223Z,17.40
2019-05-10T17:36:08.334Z,17.30
2019-05-10T17:38:53.790Z,17.30
2019-05-10T17:41:37.397Z,17.40
2019-05-10T17:44:23.129Z,17.30
2019-05-10T17:47:08.163Z,17.30
2019-05-10T17:49:53.033Z,17.20
2019-05-10T17:52:37.687Z,17.10
2019-05-10T17:55:25.330Z,17.10
2019-05-10T17:58:08.979Z,17.20
2019-05-10T18:00:54.064Z,17.50
2019-05-10T18:03:38.454Z,17.70
2019-05-10T18:06:24.503Z,17.60
2019-05-10T18:09:10.131Z,17.30
2019-05-10T18:11:54.830Z,17.10
2019-05-10T18:14:39.670Z,16.90
2019-05-10T18:17:25.892Z,16.70
2019-05-10T18:20:10.876Z,16.50
2019-05-10T18:22:55.455Z,16.40
2019-05-10T18:25:40.113Z,16.40
2019-05-10T18:28:24.586Z,16.30
2019-05-10T18:31:10.203Z,16.10
2019-05-10T18:33:55.902Z,15.90
2019-05-10T18:36:55.687Z,15.80
2019-05-10T18:39:26.937Z,15.80
2019-05-10T18:42:25.655Z,15.60
2019-05-10T18:45:06.444Z,15.50
2019-05-10T18:47:51.144Z,15.50
2019-05-10T18:50:39.632Z,15.50
2019-05-10T18:53:21.523Z,15.30
2019-05-10T18:56:15.084Z,15.10
2019-05-10T18:59:06.915Z,15.00
2019-05-10T19:01:45.964Z,14.80
2019-05-10T19:04:30.274Z,14.50
2019-05-10T19:07:23.618Z,14.40
2019-05-10T19:10:08.096Z,14.40
2019-05-10T19:12:59.495Z,14.30
2019-05-10T19:15:38.679Z,14.30
2019-05-10T19:18:32.153Z,14.20
2019-05-10T19:21:16.617Z,14.20
2019-05-10T19:24:00.963Z,14.20
2019-05-10T19:26:45.715Z,14.20
2019-05-10T19:29:59.107Z,14.50
2019-05-10T19:32:43.699Z,14.70
2019-05-10T19:35:29.636Z,14.60
2019-05-10T19:38:14.796Z,14.50
2019-05-10T19:40:59.428Z,14.40
2019-05-10T19:43:43.720Z,14.30
2019-05-10T19:46:39.491Z,14.20
2019-05-10T19:49:35.920Z,14.20
2019-05-10T19:52:26.141Z,14.20
2019-05-10T19:55:07.016Z,14.10
2019-05-10T19:57:54.680Z,14.10
2019-05-10T20:00:37.933Z,14.10
2019-05-10T20:03:22.509Z,14.10
2019-05-10T20:06:07.223Z,14.10
2019-05-10T20:09:00.883Z,14.10
2019-05-10T20:11:54.726Z,14.00
2019-05-10T20:14:39.171Z,13.90
2019-05-10T20:17:23.644Z,13.80
2019-05-10T20:20:08.575Z,13.80
2019-05-10T20:22:53.290Z,13.90
2019-05-10T20:25:38.326Z,13.90
2019-05-10T20:28:22.939Z,13.80
2019-05-10T20:31:07.574Z,13.60
2019-05-10T20:33:52.024Z,13.50
2019-05-10T20:36:45.522Z,13.50
2019-05-10T20:39:30.071Z,13.50
2019-05-10T20:42:15.479Z,13.40
2019-05-10T20:45:09.616Z,13.40
2019-05-10T20:47:54.236Z,13.50
2019-05-10T20:50:39.132Z,13.40
2019-05-10T20:53:23.218Z,13.40
2019-05-10T20:56:16.620Z,13.50
2019-05-10T20:59:02.709Z,13.60
2019-05-10T21:01:47.295Z,13.50
2019-05-10T21:04:31.489Z,13.50
2019-05-10T21:07:24.908Z,13.40
2019-05-10T21:10:09.600Z,13.40
2019-05-10T21:12:54.212Z,13.60
2019-05-10T21:15:39.156Z,13.80
2019-05-10T21:18:23.424Z,13.90
2019-05-10T21:21:16.499Z,13.80
2019-05-10T21:24:01.030Z,13.70
2019-05-10T21:26:45.751Z,13.70
2019-05-10T21:29:30.496Z,13.70
2019-05-10T21:32:15.200Z,13.70
2019-05-10T21:34:59.993Z,13.50
2019-05-10T21:37:44.500Z,13.30
2019-05-10T21:40:38.027Z,13.20
2019-05-10T21:43:23.491Z,13.20
2019-05-10T21:46:16.691Z,13.30
2019-05-10T21:49:01.415Z,13.30
2019-05-10T21:51:55.774Z,13.40
2019-05-10T21:54:40.535Z,13.30
2019-05-10T21:57:25.348Z,13.20
2019-05-10T22:00:09.791Z,13.20
2019-05-10T22:02:56.355Z,13.30
2019-05-10T22:05:41.252Z,13.40
2019-05-10T22:08:26.163Z,13.20
2019-05-10T22:11:00.308Z,13.00
2019-05-10T22:13:54.007Z,12.80
2019-05-10T22:16:38.896Z,12.70
2019-05-10T22:19:23.347Z,12.60
2019-05-10T22:22:08.293Z,12.50
2019-05-10T22:24:53.164Z,12.50
2019-05-10T22:27:37.483Z,12.60
2019-05-10T22:30:22.428Z,12.70
2019-05-10T22:33:06.745Z,12.70
2019-05-10T22:35:51.359Z,12.70
2019-05-10T22:38:44.844Z,12.70
2019-05-10T22:41:29.676Z,12.60
2019-05-10T22:44:14.064Z,12.60
2019-05-10T22:46:58.648Z,12.60
2019-05-10T22:49:43.227Z,12.60
2019-05-10T22:52:36.203Z,12.60
2019-05-10T22:55:20.993Z,12.70
2019-05-10T22:58:05.336Z,12.80
2019-05-10T23:00:49.899Z,13.00
2019-05-10T23:03:43.035Z,13.10
2019-05-10T23:06:27.405Z,13.10
2019-05-10T23:09:24.565Z,13.00
2019-05-10T23:11:54.679Z,12.80
2019-05-10T23:14:48.845Z,12.70
2019-05-10T23:17:42.451Z,12.80
2019-05-10T23:20:26.790Z,12.90
2019-05-10T23:23:11.386Z,13.10
2019-05-10T23:25:55.951Z,13.10
2019-05-10T23:28:49.223Z,12.80
2019-05-10T23:31:35.604Z,12.60
2019-05-10T23:34:19.724Z,12.60
2019-05-10T23:37:13.604Z,12.80
2019-05-10T23:40:07.243Z,13.00
2019-05-10T23:42:51.671Z,12.80
2019-05-10T23:45:36.329Z,12.80
2019-05-10T23:48:20.817Z,12.80
2019-05-10T23:51:04.925Z,12.70
2019-05-10T23:53:50.252Z,12.70
2019-05-10T23:56:43.697Z,12.60
2019-05-10T23:59:28.743Z,12.60
